Strona główna
METAR-TAF:

METAR-TAF

Lotnisko :

Kirsch Municipal Airport

Sturgis, Michigan, Stany Zjednoczone

Szerokość geograficzna: 41-48-46N, Długość geograficzna: 085-26-21W, wysokość: 282 m

Aktualna obserwacja pogody

Raport powstał 12 minut temu, godzina 13:35 UTC
Wiatr 7 kt od zachodnio-północny zachód
Temperatura 10°C
Wilgotność 87%
Ciśnienie 1021 hPa
Widzialność: 16.1 km
Zachmurzenie całkowite na wysokości 1100 ft

METAR: KIRS 211335Z AUTO 29007KT 10SM OVC011 10/08 A3014 RMK AO2 T01000080

czas: 09:47 (13:47 UTC)


TAF: brakujący

Obserwacja i prognoza pogody dla ponad 4000 lotnisk (raport METAR i TAF).

Dostępne stacje oznaczono żółtymi i czerwonymi punktami na mapie.

Najedź kursorem aby zobaczyć nazwę stacji.

Kliknij aby zobaczyć obserwacje i prognozy pogody.

Aby zmienić mapę: kliknij na zielony przycisk z czarnym krzyżykiem, aby powiększyć; na zielony przycisk z myślnikiem, aby pomniejszyć; na zielone strzałki, aby przejść do map sąsiednich.


METAR-TAF: